Time;durP1;ratioP1;P1;durP2;ratioP2;P2;SDS_P1;SDS_P2;PMS_P1;PMS_P2;Temp;Humidity;BMP_temperature;BMP_pressure;BME280_temperature;BME280_humidity;BME280_pressure;Samples;Min_cycle;Max_cycle;Signal;HPM_P1;HPM_P2
2022/04/22 00:00:17;;;;;;;0.67;0.67;;;7.40;99.90;;;;;;5086911;28;20457;-85
2022/04/22 00:02:44;;;;;;;1.03;0.50;;;7.50;99.90;;;;;;5086382;28;20938;-87
2022/04/22 00:05:11;;;;;;;0.30;0.17;;;7.50;99.90;;;;;;5086781;28;20455;-87
2022/04/22 00:07:38;;;;;;;0.40;0.40;;;7.40;99.90;;;;;;5090078;28;20456;-85
2022/04/22 00:10:08;;;;;;;0.30;0.17;;;7.40;99.90;;;;;;5085916;28;20455;-86
2022/04/22 00:12:35;;;;;;;0.30;0.10;;;7.40;99.90;;;;;;5085239;28;20480;-85
2022/04/22 00:15:04;;;;;;;0.70;0.60;;;7.30;99.90;;;;;;5087393;28;20473;-86
2022/04/22 00:17:31;;;;;;;0.30;0.10;;;7.30;99.90;;;;;;5084881;28;20871;-88
2022/04/22 00:19:58;;;;;;;0.30;0.20;;;7.30;99.90;;;;;;5086158;28;20844;-85
2022/04/22 00:22:25;;;;;;;0.83;0.83;;;7.30;99.90;;;;;;5082511;28;20502;-87
2022/04/22 00:24:53;;;;;;;0.30;0.20;;;7.30;99.90;;;;;;5082532;28;20462;-84
2022/04/22 00:27:21;;;;;;;0.30;0.20;;;7.20;99.90;;;;;;5086626;28;20496;-86
2022/04/22 00:29:48;;;;;;;0.30;0.10;;;7.10;99.90;;;;;;5082724;28;20522;-86
2022/04/22 00:32:16;;;;;;;0.30;0.20;;;7.10;99.90;;;;;;5085287;28;20557;-85
2022/04/22 00:34:43;;;;;;;0.30;0.20;;;7.10;99.90;;;;;;5086791;28;20476;-87
2022/04/22 00:37:10;;;;;;;0.50;0.20;;;7.10;99.90;;;;;;5087261;28;20499;-84
2022/04/22 00:39:37;;;;;;;0.30;0.20;;;7.10;99.90;;;;;;5085779;28;20458;-84
2022/04/22 00:42:10;;;;;;;0.40;0.30;;;7.10;99.90;;;;;;5085404;28;20450;-84
2022/04/22 00:44:38;;;;;;;0.33;0.20;;;7.00;99.90;;;;;;5086779;28;20558;-86
2022/04/22 00:47:05;;;;;;;0.30;0.20;;;7.10;99.90;;;;;;5087056;28;20545;-86
2022/04/22 00:49:33;;;;;;;0.30;0.17;;;7.10;99.90;;;;;;5085133;28;20849;-85
2022/04/22 00:52:00;;;;;;;0.40;0.30;;;7.10;99.90;;;;;;5082866;28;20483;-84
2022/04/22 00:54:28;;;;;;;0.30;0.20;;;7.10;99.90;;;;;;5089170;28;20458;-86
2022/04/22 00:56:55;;;;;;;0.30;0.10;;;7.10;99.90;;;;;;5085680;28;20519;-86
2022/04/22 00:59:23;;;;;;;0.40;0.30;;;7.10;99.90;;;;;;5086208;28;20515;-84
2022/04/22 01:01:50;;;;;;;0.40;0.40;;;7.10;99.90;;;;;;5088860;28;20474;-85
2022/04/22 01:09:51;;;;;;;0.40;0.30;;;7.00;99.90;;;;;;5087671;28;20448;-86
2022/04/22 01:12:19;;;;;;;0.30;0.10;;;7.00;99.90;;;;;;5080248;28;20477;-85
2022/04/22 01:14:47;;;;;;;0.30;0.20;;;7.00;99.90;;;;;;5086582;28;20520;-87
2022/04/22 01:17:14;;;;;;;0.30;0.20;;;7.00;99.90;;;;;;5085864;28;20968;-86
2022/04/22 01:19:41;;;;;;;0.30;0.20;;;6.90;99.90;;;;;;5086087;28;20907;-84
2022/04/22 01:22:10;;;;;;;0.30;0.10;;;6.90;99.90;;;;;;5082933;28;20513;-84
2022/04/22 01:24:37;;;;;;;0.53;0.53;;;7.00;99.90;;;;;;5090351;28;20489;-87
2022/04/22 01:27:06;;;;;;;0.30;0.20;;;7.00;99.90;;;;;;5085836;28;20458;-85
2022/04/22 01:29:33;;;;;;;0.30;0.10;;;7.00;99.90;;;;;;5082405;28;21025;-87
2022/04/22 01:32:01;;;;;;;3.43;1.07;;;7.00;99.90;;;;;;5085541;28;20486;-86
2022/04/22 01:34:28;;;;;;;0.40;0.20;;;7.00;99.90;;;;;;5085774;28;20465;-86
2022/04/22 01:36:55;;;;;;;0.30;0.20;;;6.90;99.90;;;;;;5084875;28;20467;-85
2022/04/22 01:39:23;;;;;;;0.50;0.40;;;6.80;99.90;;;;;;5086104;28;20458;-84
2022/04/22 01:41:50;;;;;;;0.30;0.10;;;6.90;99.90;;;;;;5086369;28;20537;-85
2022/04/22 01:44:17;;;;;;;0.30;0.20;;;6.90;99.90;;;;;;5085236;28;21208;-85
2022/04/22 01:46:44;;;;;;;0.63;0.63;;;6.90;99.90;;;;;;5087905;28;20492;-85
2022/04/22 01:49:11;;;;;;;0.30;0.10;;;7.00;99.90;;;;;;5086754;28;20523;-86
2022/04/22 01:51:39;;;;;;;0.47;0.27;;;7.00;99.90;;;;;;5085919;28;20483;-84
2022/04/22 01:54:06;;;;;;;0.37;0.30;;;7.00;99.90;;;;;;5086081;28;20539;-84
2022/04/22 01:56:34;;;;;;;0.40;0.20;;;7.00;99.90;;;;;;5090061;28;20916;-86
2022/04/22 01:59:01;;;;;;;0.67;0.30;;;6.90;99.90;;;;;;5089452;28;21037;-85
2022/04/22 02:01:29;;;;;;;0.30;0.20;;;6.90;99.90;;;;;;5088961;28;20508;-84
2022/04/22 02:03:56;;;;;;;0.33;0.20;;;6.90;99.90;;;;;;5087777;28;20489;-85
2022/04/22 02:06:23;;;;;;;0.30;0.20;;;6.80;99.90;;;;;;5084957;28;20488;-87
2022/04/22 02:08:50;;;;;;;0.30;0.10;;;6.90;99.90;;;;;;5088278;28;20519;-86
2022/04/22 02:11:17;;;;;;;0.30;0.20;;;6.90;99.90;;;;;;5086696;28;20479;-84
2022/04/22 02:13:45;;;;;;;0.60;0.60;;;6.90;99.90;;;;;;5086733;28;20492;-87
2022/04/22 02:16:12;;;;;;;1.10;0.80;;;6.90;99.90;;;;;;5088498;28;20454;-85
2022/04/22 02:18:41;;;;;;;0.30;0.10;;;6.90;99.90;;;;;;5089331;28;20461;-84
2022/04/22 02:21:10;;;;;;;0.33;0.17;;;6.90;99.90;;;;;;5086517;28;20569;-84
2022/04/22 02:23:37;;;;;;;1.03;0.93;;;6.90;99.90;;;;;;5089979;28;21013;-84
2022/04/22 02:26:05;;;;;;;0.30;0.20;;;6.80;99.90;;;;;;5087558;28;20457;-85
2022/04/22 02:28:34;;;;;;;0.50;0.40;;;6.80;99.90;;;;;;5085667;28;20489;-86
2022/04/22 02:31:05;;;;;;;0.50;0.50;;;6.90;99.90;;;;;;5087162;28;20450;-84
2022/04/22 02:33:33;;;;;;;0.30;0.10;;;6.90;99.90;;;;;;5086599;28;20468;-83
2022/04/22 02:36:00;;;;;;;0.47;0.43;;;6.90;99.90;;;;;;5088895;28;20507;-85
2022/04/22 02:38:28;;;;;;;0.30;0.13;;;6.90;99.90;;;;;;5091020;28;20948;-84
2022/04/22 02:46:27;;;;;;;1.43;1.43;;;6.70;99.90;;;;;;5085666;28;20468;-87
2022/04/22 02:48:57;;;;;;;0.40;0.30;;;6.70;99.90;;;;;;5088225;28;20455;-86
2022/04/22 02:51:25;;;;;;;0.53;0.53;;;6.70;99.90;;;;;;5091524;28;20473;-86
2022/04/22 02:53:52;;;;;;;0.30;0.20;;;6.70;99.90;;;;;;5088106;28;20470;-85
2022/04/22 02:56:20;;;;;;;0.37;0.30;;;6.70;99.90;;;;;;5087763;28;20460;-84
2022/04/22 02:58:47;;;;;;;0.30;0.20;;;6.60;99.90;;;;;;5088350;28;20516;-86
2022/04/22 03:01:15;;;;;;;0.30;0.10;;;6.60;99.90;;;;;;5087389;28;20538;-87
2022/04/22 03:03:44;;;;;;;0.67;0.67;;;6.60;99.90;;;;;;5088472;28;20458;-84
2022/04/22 03:06:11;;;;;;;0.30;0.20;;;6.60;99.90;;;;;;5094830;28;20455;-85
2022/04/22 03:08:38;;;;;;;0.30;0.20;;;6.60;99.90;;;;;;5087702;28;20503;-85
2022/04/22 03:11:05;;;;;;;0.30;0.10;;;6.60;99.90;;;;;;5085102;28;20548;-84
2022/04/22 03:13:33;;;;;;;0.30;0.10;;;6.50;99.90;;;;;;5086989;28;20474;-85
2022/04/22 03:16:00;;;;;;;0.30;0.20;;;6.60;99.90;;;;;;5085025;28;20538;-84
2022/04/22 03:18:28;;;;;;;0.50;0.50;;;6.50;99.90;;;;;;5084944;28;20554;-84
2022/04/22 03:20:57;;;;;;;0.30;0.10;;;6.50;99.90;;;;;;5086657;28;20459;-84
2022/04/22 03:23:23;;;;;;;0.30;0.20;;;6.50;99.90;;;;;;5086343;28;20849;-85
2022/04/22 03:25:50;;;;;;;0.30;0.10;;;6.50;99.90;;;;;;5088328;28;20458;-85
2022/04/22 03:28:18;;;;;;;0.30;0.20;;;6.50;99.90;;;;;;5086869;28;20463;-86
2022/04/22 03:30:45;;;;;;;1.07;0.73;;;6.50;99.90;;;;;;5083386;28;20557;-84
2022/04/22 03:33:12;;;;;;;0.40;0.30;;;6.50;99.90;;;;;;5089891;28;20977;-84
2022/04/22 03:35:38;;;;;;;0.40;0.30;;;6.50;99.90;;;;;;5083842;28;20556;-87
2022/04/22 03:38:08;;;;;;;1.27;0.90;;;6.50;99.90;;;;;;5089717;28;20937;-84
2022/04/22 03:40:35;;;;;;;0.40;0.20;;;6.50;99.90;;;;;;5087391;28;20476;-85
2022/04/22 03:43:02;;;;;;;0.30;0.20;;;6.60;99.90;;;;;;5087681;28;20515;-85
2022/04/22 03:45:29;;;;;;;0.30;0.10;;;6.60;99.90;;;;;;5086030;28;20455;-85
2022/04/22 03:47:58;;;;;;;0.30;0.10;;;6.60;99.90;;;;;;5087009;28;20456;-84
2022/04/22 03:50:25;;;;;;;0.30;0.20;;;6.50;99.90;;;;;;5085085;28;20477;-85
2022/04/22 03:52:52;;;;;;;0.90;0.53;;;6.60;99.90;;;;;;5087154;28;20869;-86
2022/04/22 03:55:21;;;;;;;0.30;0.20;;;6.60;99.90;;;;;;5087211;28;20499;-84
2022/04/22 04:00:33;;;;;;;1.37;1.27;;;6.60;99.90;;;;;;5085625;28;20468;-85
2022/04/22 04:03:01;;;;;;;0.40;0.30;;;6.60;99.90;;;;;;5085770;28;20455;-84
2022/04/22 04:05:28;;;;;;;1.47;0.40;;;6.60;99.90;;;;;;5087008;28;20465;-83
2022/04/22 04:07:55;;;;;;;0.30;0.20;;;6.60;99.90;;;;;;5084515;28;20478;-86
2022/04/22 04:16:01;;;;;;;0.30;0.27;;;6.70;99.90;;;;;;5086482;28;20488;-84
2022/04/22 04:18:31;;;;;;;0.30;0.10;;;6.70;99.90;;;;;;5086214;28;21327;-84
2022/04/22 04:23:43;;;;;;;0.30;0.17;;;6.70;99.90;;;;;;5087804;28;20436;-84
2022/04/22 04:26:12;;;;;;;0.30;0.10;;;6.70;99.90;;;;;;5085064;28;20509;-84
2022/04/22 04:28:40;;;;;;;0.30;0.20;;;6.80;99.90;;;;;;5095568;28;20442;-84
2022/04/22 04:31:08;;;;;;;0.70;0.20;;;6.70;99.90;;;;;;5106498;28;20484;-84
2022/04/22 04:33:36;;;;;;;0.30;0.10;;;6.80;99.90;;;;;;5093341;28;20835;-85
2022/04/22 04:36:04;;;;;;;0.30;0.10;;;6.70;99.90;;;;;;5090204;28;20442;-85
2022/04/22 04:38:31;;;;;;;0.37;0.30;;;6.80;99.90;;;;;;5082738;28;20524;-86
2022/04/22 04:40:59;;;;;;;0.50;0.30;;;6.70;99.90;;;;;;5087585;28;20482;-85
2022/04/22 04:43:27;;;;;;;0.30;0.10;;;6.70;99.90;;;;;;5087507;28;21157;-84
2022/04/22 04:45:55;;;;;;;0.30;0.10;;;6.80;99.90;;;;;;5086741;28;20548;-83
2022/04/22 04:48:22;;;;;;;0.30;0.20;;;6.80;99.90;;;;;;5085269;28;20552;-89
2022/04/22 04:50:51;;;;;;;0.30;0.20;;;6.90;99.90;;;;;;5088045;28;20451;-87
2022/04/22 04:53:19;;;;;;;0.30;0.20;;;6.80;99.90;;;;;;5089865;28;20515;-84
2022/04/22 04:55:47;;;;;;;1.23;0.40;;;6.80;99.90;;;;;;5100526;28;20960;-83
2022/04/22 04:58:14;;;;;;;0.40;0.30;;;6.80;99.90;;;;;;5086616;28;20451;-84
2022/04/22 05:00:44;;;;;;;0.30;0.10;;;6.80;99.90;;;;;;5087507;28;20462;-85
2022/04/22 05:03:11;;;;;;;0.40;0.37;;;6.80;99.90;;;;;;5084728;28;20443;-84
2022/04/22 05:05:39;;;;;;;0.30;0.10;;;6.80;99.90;;;;;;5086008;28;20463;-83
2022/04/22 05:08:07;;;;;;;0.40;0.20;;;6.80;99.90;;;;;;5087473;28;20500;-83
2022/04/22 05:10:35;;;;;;;0.40;0.30;;;6.90;99.90;;;;;;5086857;28;20897;-83
2022/04/22 05:13:03;;;;;;;0.30;0.20;;;6.90;99.90;;;;;;5086372;28;20483;-85
2022/04/22 05:15:31;;;;;;;1.00;0.83;;;6.90;99.90;;;;;;5086171;28;20518;-84
2022/04/22 05:18:02;;;;;;;0.40;0.20;;;6.90;99.90;;;;;;5087395;28;20435;-83
2022/04/22 05:20:29;;;;;;;0.30;0.10;;;6.90;99.90;;;;;;5085456;28;20515;-82
2022/04/22 05:22:58;;;;;;;0.30;0.20;;;6.90;99.90;;;;;;5087670;28;20480;-82
2022/04/22 05:25:25;;;;;;;0.30;0.20;;;6.90;99.90;;;;;;5090284;28;20479;-82
2022/04/22 05:27:52;;;;;;;0.60;0.60;;;6.90;99.90;;;;;;5090345;28;20463;-82
2022/04/22 05:33:06;;;;;;;1.37;0.30;;;6.90;99.90;;;;;;5089047;28;20480;-83
2022/04/22 05:35:33;;;;;;;0.30;0.10;;;7.00;99.90;;;;;;5093056;28;20449;-84
2022/04/22 05:38:01;;;;;;;1.60;0.87;;;7.00;99.90;;;;;;5089213;28;20713;-84
2022/04/22 05:40:30;;;;;;;0.67;0.60;;;7.00;99.90;;;;;;5069644;28;20452;-84
2022/04/22 05:42:58;;;;;;;0.30;0.10;;;7.10;99.90;;;;;;5069695;28;20439;-85
2022/04/22 05:45:27;;;;;;;0.30;0.10;;;7.10;99.90;;;;;;5086086;28;20508;-84
2022/04/22 05:47:56;;;;;;;0.30;0.20;;;7.20;99.90;;;;;;5088786;28;20449;-85
2022/04/22 05:50:26;;;;;;;0.97;0.97;;;7.20;99.90;;;;;;5087510;28;20465;-84
2022/04/22 05:52:53;;;;;;;0.60;0.20;;;7.20;99.90;;;;;;5090466;28;20479;-82
2022/04/22 05:55:22;;;;;;;0.30;0.10;;;7.30;99.90;;;;;;5088820;28;20523;-84
2022/04/22 05:57:52;;;;;;;0.40;0.40;;;7.40;99.90;;;;;;5074134;28;20443;-85
2022/04/22 06:00:20;;;;;;;0.60;0.60;;;7.50;99.90;;;;;;5090384;28;20445;-82
2022/04/22 06:02:48;;;;;;;0.30;0.10;;;7.50;99.90;;;;;;5091079;28;20479;-84
2022/04/22 06:05:17;;;;;;;0.30;0.10;;;7.50;99.90;;;;;;5089452;28;20512;-86
2022/04/22 06:07:45;;;;;;;0.30;0.20;;;7.60;99.90;;;;;;5091071;28;20446;-83
2022/04/22 06:12:59;;;;;;;0.30;0.10;;;7.80;99.90;;;;;;5088983;28;20530;-80
2022/04/22 06:15:26;;;;;;;0.40;0.30;;;7.90;99.90;;;;;;5090353;28;21030;-80
2022/04/22 06:17:53;;;;;;;0.40;0.40;;;7.90;99.90;;;;;;5089245;28;20467;-83
2022/04/22 06:20:20;;;;;;;0.30;0.20;;;7.90;99.90;;;;;;5090380;28;20496;-82
2022/04/22 06:22:48;;;;;;;0.40;0.33;;;7.90;99.90;;;;;;5086776;28;20516;-79
2022/04/22 06:25:15;;;;;;;0.40;0.20;;;7.90;99.90;;;;;;5089663;28;20507;-82
2022/04/22 06:27:44;;;;;;;1.17;0.30;;;7.90;99.90;;;;;;5088657;28;20458;-80
2022/04/22 06:30:13;;;;;;;0.40;0.30;;;8.00;99.90;;;;;;5101395;28;20449;-82
2022/04/22 06:32:42;;;;;;;0.40;0.30;;;8.00;99.90;;;;;;5090877;28;20491;-82
2022/04/22 06:35:10;;;;;;;0.30;0.20;;;8.00;99.90;;;;;;5089547;28;20434;-80
2022/04/22 06:37:40;;;;;;;0.40;0.20;;;8.00;99.90;;;;;;5090028;28;20480;-82
2022/04/22 06:45:47;;;;;;;0.50;0.20;;;8.20;99.90;;;;;;5087025;28;21059;-86
2022/04/22 06:48:15;;;;;;;0.53;0.40;;;8.20;99.90;;;;;;5090672;28;20439;-80
2022/04/22 06:50:43;;;;;;;0.30;0.20;;;8.30;99.90;;;;;;5087138;28;20458;-80
2022/04/22 06:53:11;;;;;;;0.63;0.63;;;8.30;99.90;;;;;;5092413;28;20488;-80
2022/04/22 06:55:40;;;;;;;0.40;0.30;;;8.40;99.90;;;;;;5089128;28;20435;-80
2022/04/22 06:58:11;;;;;;;0.30;0.20;;;8.50;99.90;;;;;;5089890;28;20451;-80
2022/04/22 07:00:38;;;;;;;0.30;0.20;;;8.50;99.90;;;;;;5088553;28;20537;-81
2022/04/22 07:03:06;;;;;;;0.40;0.30;;;8.60;99.90;;;;;;5089934;28;21156;-82
2022/04/22 07:05:34;;;;;;;0.40;0.20;;;8.60;99.90;;;;;;5082162;28;20470;-80
2022/04/22 07:08:02;;;;;;;0.50;0.50;;;8.70;99.90;;;;;;5089892;28;20482;-80
2022/04/22 07:10:30;;;;;;;0.50;0.30;;;8.70;99.90;;;;;;5089365;28;20469;-79
2022/04/22 07:12:59;;;;;;;0.50;0.40;;;8.80;99.90;;;;;;5087645;28;20969;-79
2022/04/22 07:15:27;;;;;;;0.30;0.20;;;8.80;99.90;;;;;;5089498;28;20455;-82
2022/04/22 07:17:55;;;;;;;0.40;0.40;;;8.90;99.70;;;;;;5089026;28;20447;-80
2022/04/22 07:20:23;;;;;;;0.30;0.20;;;8.80;99.60;;;;;;5088621;28;20455;-83
2022/04/22 07:22:53;;;;;;;0.30;0.20;;;9.00;99.80;;;;;;5088878;28;20486;-82
2022/04/22 07:25:21;;;;;;;0.30;0.20;;;9.10;99.90;;;;;;5091798;28;20445;-80
2022/04/22 07:27:49;;;;;;;0.40;0.30;;;9.20;99.90;;;;;;5101140;28;20525;-79
2022/04/22 07:30:20;;;;;;;0.40;0.40;;;9.00;99.90;;;;;;5088217;28;20511;-80
2022/04/22 07:32:48;;;;;;;0.60;0.40;;;9.00;99.90;;;;;;5086590;28;20528;-80
2022/04/22 07:35:17;;;;;;;1.33;0.77;;;9.10;99.90;;;;;;5084193;28;20486;-79
2022/04/22 07:37:46;;;;;;;0.30;0.20;;;9.20;99.90;;;;;;5085836;28;20443;-82
2022/04/22 07:40:14;;;;;;;0.30;0.10;;;9.30;99.90;;;;;;5087382;28;20554;-80
2022/04/22 07:46:46;;;;;;;0.87;0.80;;;9.20;99.80;;;;;;5087147;28;20459;-81
2022/04/22 07:48:18;;;;;;;0.30;0.20;;;9.30;99.90;;;;;;5091839;28;20782;-80
2022/04/22 07:50:47;;;;;;;0.70;0.40;;;9.60;99.90;;;;;;5093468;28;20465;-82
2022/04/22 07:53:14;;;;;;;0.30;0.20;;;9.70;99.90;;;;;;5087338;28;20527;-81
2022/04/22 07:55:41;;;;;;;0.30;0.10;;;9.90;99.60;;;;;;5080606;28;20446;-81
2022/04/22 07:58:09;;;;;;;0.40;0.20;;;10.00;99.00;;;;;;5085527;28;21121;-82
2022/04/22 08:00:38;;;;;;;0.40;0.30;;;10.00;98.60;;;;;;5088191;28;20499;-83
2022/04/22 08:03:05;;;;;;;0.40;0.23;;;9.90;99.10;;;;;;5085977;28;20451;-83
2022/04/22 08:05:32;;;;;;;0.30;0.20;;;10.10;99.60;;;;;;5088040;28;20523;-78
2022/04/22 08:07:59;;;;;;;0.57;0.57;;;10.20;98.70;;;;;;5087234;28;20447;-78
2022/04/22 08:10:26;;;;;;;1.03;0.50;;;10.30;98.90;;;;;;5086792;28;21005;-81
2022/04/22 08:12:53;;;;;;;0.30;0.20;;;10.30;99.00;;;;;;5083194;28;20978;-79
2022/04/22 08:15:21;;;;;;;0.87;0.87;;;10.50;99.10;;;;;;5086054;28;20454;-80
2022/04/22 08:17:50;;;;;;;0.30;0.20;;;10.80;99.00;;;;;;5084940;28;20461;-80
2022/04/22 08:20:17;;;;;;;0.37;0.20;;;10.80;98.60;;;;;;5086846;28;20447;-78
2022/04/22 08:22:45;;;;;;;0.40;0.40;;;10.80;98.40;;;;;;5088540;28;20533;-77
2022/04/22 08:25:12;;;;;;;0.90;0.40;;;11.00;98.30;;;;;;5087815;28;20522;-81
2022/04/22 08:27:40;;;;;;;0.30;0.20;;;11.20;98.60;;;;;;5087633;28;20451;-78
2022/04/22 08:30:09;;;;;;;0.30;0.20;;;11.10;98.20;;;;;;5086455;28;20459;-80
2022/04/22 08:32:36;;;;;;;0.37;0.30;;;11.20;98.10;;;;;;5088354;28;20443;-79
2022/04/22 08:35:07;;;;;;;0.40;0.40;;;11.20;98.00;;;;;;5085469;28;21292;-80
2022/04/22 08:37:34;;;;;;;0.40;0.30;;;11.30;97.80;;;;;;5086012;28;20533;-81
2022/04/22 08:40:01;;;;;;;0.80;0.67;;;11.40;97.80;;;;;;5086651;28;20446;-79
2022/04/22 08:42:28;;;;;;;0.40;0.20;;;11.40;97.60;;;;;;5085023;28;20492;-78
2022/04/22 08:44:55;;;;;;;1.07;1.03;;;11.40;97.60;;;;;;5087344;28;20599;-80
2022/04/22 08:50:13;;;;;;;0.30;0.20;;;11.20;98.30;;;;;;5084068;28;20423;-80
2022/04/22 08:52:43;;;;;;;0.73;0.73;;;11.40;98.90;;;;;;5085016;28;20548;-79
2022/04/22 08:55:12;;;;;;;0.77;0.77;;;11.30;98.10;;;;;;5084032;28;20565;-84
2022/04/22 08:57:42;;;;;;;0.30;0.20;;;11.40;98.60;;;;;;5088218;28;20447;-82
2022/04/22 09:00:09;;;;;;;0.30;0.20;;;11.40;99.30;;;;;;5082211;28;20539;-83
2022/04/22 09:02:37;;;;;;;0.50;0.20;;;11.60;98.80;;;;;;5089988;28;20535;-81
2022/04/22 09:05:07;;;;;;;1.40;0.73;;;11.70;98.30;;;;;;5091991;28;20527;-82
2022/04/22 09:07:35;;;;;;;0.60;0.40;;;11.60;99.00;;;;;;5093156;28;20455;-81
2022/04/22 09:10:02;;;;;;;0.30;0.23;;;11.60;98.60;;;;;;5090737;28;20477;-81
2022/04/22 09:12:29;;;;;;;0.40;0.27;;;11.60;98.70;;;;;;5089122;28;20434;-80
2022/04/22 09:14:57;;;;;;;0.40;0.30;;;11.70;99.10;;;;;;5087250;28;20474;-81
2022/04/22 09:17:26;;;;;;;0.70;0.50;;;11.80;98.80;;;;;;5090681;28;20812;-81
2022/04/22 09:19:54;;;;;;;0.40;0.30;;;11.80;99.20;;;;;;5087998;28;20488;-82
2022/04/22 09:22:22;;;;;;;0.30;0.20;;;11.60;99.60;;;;;;5089356;28;21048;-82
2022/04/22 09:24:53;;;;;;;0.80;0.80;;;11.50;99.90;;;;;;5076427;28;20471;-82
2022/04/22 09:27:21;;;;;;;0.40;0.20;;;11.20;99.90;;;;;;5082066;28;20911;-83
2022/04/22 09:29:57;;;;;;;0.30;0.20;;;11.20;99.90;;;;;;5083410;28;20538;-81
2022/04/22 09:32:25;;;;;;;0.50;0.50;;;11.30;99.90;;;;;;5089735;28;20487;-81
2022/04/22 09:34:55;;;;;;;0.40;0.30;;;11.20;99.90;;;;;;5091058;28;20486;-81
2022/04/22 09:43:14;;;;;;;1.17;1.17;;;11.10;99.90;;;;;;5090224;28;20853;-82
2022/04/22 09:45:41;;;;;;;0.30;0.20;;;11.10;99.90;;;;;;5085561;28;20485;-82
2022/04/22 09:48:17;;;;;;;0.30;0.20;;;11.10;99.90;;;;;;5091319;28;20494;-82
2022/04/22 09:50:46;;;;;;;0.30;0.20;;;11.20;99.90;;;;;;5086262;28;20537;-83
2022/04/22 09:53:16;;;;;;;0.30;0.20;;;11.20;99.90;;;;;;5084669;28;20639;-82
2022/04/22 09:55:53;;;;;;;0.57;0.57;;;11.20;99.90;;;;;;5100608;28;20934;-82
2022/04/22 09:58:24;;;;;;;1.33;1.33;;;11.10;99.90;;;;;;5090578;28;20786;-81
2022/04/22 10:01:03;;;;;;;0.30;0.20;;;11.40;99.90;;;;;;5089656;28;20961;-83
2022/04/22 10:03:32;;;;;;;2.57;0.93;;;11.40;99.90;;;;;;5090777;28;20450;-84
2022/04/22 10:06:01;;;;;;;0.30;0.20;;;11.60;99.90;;;;;;5089795;28;20466;-83
2022/04/22 10:08:30;;;;;;;1.27;1.17;;;11.70;99.90;;;;;;5089830;28;20443;-82
2022/04/22 10:11:01;;;;;;;1.23;0.40;;;11.80;99.90;;;;;;5089442;28;20435;-82
2022/04/22 10:13:34;;;;;;;0.30;0.20;;;11.80;99.90;;;;;;5088161;28;20492;-82
2022/04/22 10:16:02;;;;;;;0.30;0.10;;;11.70;99.90;;;;;;5095418;28;20454;-81
2022/04/22 10:18:30;;;;;;;0.30;0.20;;;11.60;99.90;;;;;;5088520;28;20451;-82
2022/04/22 10:20:59;;;;;;;0.40;0.33;;;11.50;99.90;;;;;;5089991;28;20513;-83
2022/04/22 10:23:27;;;;;;;0.50;0.23;;;11.40;99.90;;;;;;5086302;28;20461;-82
2022/04/22 10:25:54;;;;;;;0.83;0.30;;;11.40;99.90;;;;;;5089248;28;21156;-84
2022/04/22 10:28:25;;;;;;;0.50;0.43;;;11.20;99.90;;;;;;5088491;28;20910;-85
2022/04/22 10:30:54;;;;;;;1.27;0.37;;;11.10;99.90;;;;;;5085698;28;20453;-82
2022/04/22 10:33:27;;;;;;;0.40;0.20;;;11.20;99.90;;;;;;5088819;28;20462;-81
2022/04/22 10:36:00;;;;;;;0.40;0.40;;;11.00;99.90;;;;;;5088435;28;20454;-83
2022/04/22 10:38:28;;;;;;;0.40;0.30;;;10.80;99.90;;;;;;5088716;28;20500;-85
2022/04/22 10:40:56;;;;;;;0.30;0.20;;;10.80;99.90;;;;;;5084754;28;20455;-82
2022/04/22 10:43:28;;;;;;;0.40;0.30;;;10.80;99.90;;;;;;5089199;28;20728;-82
2022/04/22 10:48:41;;;;;;;1.07;0.50;;;10.80;99.90;;;;;;5088407;28;20591;-84
2022/04/22 10:51:10;;;;;;;0.80;0.60;;;10.80;99.90;;;;;;5085981;28;20471;-85
2022/04/22 10:53:46;;;;;;;0.57;0.57;;;10.90;99.90;;;;;;5087599;28;21022;-82
2022/04/22 10:56:36;;;;;;;2.97;0.47;;;10.90;99.90;;;;;;5083638;28;20489;-83
2022/04/22 10:59:32;;;;;;;1.33;0.60;;;10.90;99.90;;;;;;5100806;28;20475;-83
2022/04/22 11:02:00;;;;;;;0.30;0.30;;;11.00;99.90;;;;;;5069042;28;20773;-82
2022/04/22 11:04:29;;;;;;;0.30;0.20;;;11.10;99.90;;;;;;5081518;28;20836;-82
2022/04/22 11:06:57;;;;;;;0.50;0.50;;;11.20;99.90;;;;;;5088127;28;20455;-85
2022/04/22 11:09:26;;;;;;;0.40;0.37;;;11.30;99.90;;;;;;5104078;28;20487;-83
2022/04/22 11:11:53;;;;;;;0.30;0.20;;;11.10;99.90;;;;;;5119622;28;20455;-85
2022/04/22 11:14:23;;;;;;;0.30;0.20;;;11.00;99.90;;;;;;5076106;28;20844;-85
2022/04/22 11:16:52;;;;;;;0.40;0.30;;;11.00;99.90;;;;;;5072079;28;20509;-84
2022/04/22 11:19:27;;;;;;;0.73;0.73;;;10.70;99.90;;;;;;5086692;28;20463;-83
2022/04/22 11:21:57;;;;;;;0.30;0.20;;;10.70;99.90;;;;;;5088537;28;20822;-85
2022/04/22 11:24:26;;;;;;;0.30;0.20;;;10.60;99.90;;;;;;5087687;28;20827;-86
2022/04/22 11:26:54;;;;;;;0.40;0.30;;;10.50;99.90;;;;;;5088414;28;20503;-84
2022/04/22 11:29:21;;;;;;;0.50;0.43;;;10.30;99.90;;;;;;5080618;28;20505;-85
2022/04/22 11:32:05;;;;;;;0.30;0.20;;;10.10;99.90;;;;;;5085244;28;20509;-84
2022/04/22 11:35:23;;;;;;;3.90;0.57;;;10.20;99.90;;;;;;5088375;28;21219;-86
2022/04/22 11:37:59;;;;;;;0.30;0.20;;;10.10;99.90;;;;;;5063509;28;20451;-82
2022/04/22 11:40:27;;;;;;;0.50;0.50;;;10.10;99.90;;;;;;5087007;28;20470;-84
2022/04/22 11:42:55;;;;;;;0.60;0.60;;;9.90;99.90;;;;;;5082616;28;20520;-84
2022/04/22 11:45:22;;;;;;;1.60;0.80;;;9.80;99.90;;;;;;5087800;28;20554;-89
2022/04/22 11:47:50;;;;;;;0.40;0.20;;;9.70;99.90;;;;;;5088363;28;20430;-84
2022/04/22 11:50:19;;;;;;;1.80;0.97;;;9.70;99.90;;;;;;5087313;28;20852;-83
2022/04/22 11:52:52;;;;;;;0.40;0.40;;;9.70;99.90;;;;;;5087800;28;20536;-84
2022/04/22 11:55:22;;;;;;;0.77;0.23;;;9.70;99.90;;;;;;5087758;28;20924;-83
2022/04/22 11:57:49;;;;;;;0.37;0.17;;;9.70;99.90;;;;;;5082169;28;20915;-85
2022/04/22 12:05:49;;;;;;;0.40;0.30;;;9.70;99.90;;;;;;5085996;28;20538;-82
2022/04/22 12:08:16;;;;;;;0.30;0.20;;;9.60;99.90;;;;;;5089703;28;20488;-85
2022/04/22 12:10:46;;;;;;;0.87;0.87;;;9.60;99.90;;;;;;5085425;28;20486;-83
2022/04/22 12:13:14;;;;;;;0.80;0.80;;;9.60;99.90;;;;;;5087460;28;20450;-83
2022/04/22 12:15:43;;;;;;;0.30;0.20;;;9.50;99.90;;;;;;5085782;28;20485;-85
2022/04/22 12:21:07;;;;;;;0.30;0.10;;;9.40;99.90;;;;;;5162207;27;20303;-90
2022/04/22 12:23:36;;;;;;;0.50;0.50;;;9.30;99.90;;;;;;5143828;27;20451;-92
2022/04/22 12:26:03;;;;;;;0.30;0.30;;;9.30;99.90;;;;;;5143713;27;20463;-93
2022/04/22 12:28:30;;;;;;;0.50;0.30;;;9.30;99.90;;;;;;5143499;27;20497;-91
2022/04/22 12:30:58;;;;;;;0.37;0.23;;;9.30;99.90;;;;;;5133314;27;20469;-92
2022/04/22 12:33:26;;;;;;;0.30;0.20;;;9.30;99.90;;;;;;5143329;27;20786;-92
2022/04/22 12:36:04;;;;;;;1.13;0.80;;;9.20;99.90;;;;;;5124236;27;20490;-89
2022/04/22 12:38:33;;;;;;;0.50;0.50;;;9.20;99.90;;;;;;5143311;27;20908;-90
2022/04/22 12:41:00;;;;;;;0.30;0.20;;;9.20;99.90;;;;;;5144896;27;20486;-90
2022/04/22 12:43:31;;;;;;;0.60;0.60;;;9.20;99.90;;;;;;5145731;27;20456;-90
2022/04/22 12:52:15;;;;;;;0.90;0.67;;;9.00;99.90;;;;;;5145922;27;20484;-91
2022/04/22 12:54:46;;;;;;;0.30;0.20;;;8.90;99.90;;;;;;5140766;27;20516;-90
2022/04/22 12:57:20;;;;;;;0.30;0.10;;;9.00;99.90;;;;;;5124227;28;20799;-91
2022/04/22 12:59:50;;;;;;;1.23;0.73;;;9.00;99.90;;;;;;5139884;27;20479;-90
2022/04/22 13:02:18;;;;;;;0.60;0.60;;;9.10;99.90;;;;;;5145197;27;20504;-90
2022/04/22 13:04:59;;;;;;;0.30;0.20;;;8.90;99.90;;;;;;5138184;27;20556;-91
2022/04/22 13:07:38;;;;;;;0.63;0.23;;;8.90;99.90;;;;;;5144382;27;20456;-91
2022/04/22 13:10:08;;;;;;;0.30;0.20;;;8.80;99.90;;;;;;5132600;27;20464;-91
2022/04/22 13:12:39;;;;;;;0.70;0.63;;;8.80;99.90;;;;;;5133317;27;20461;-91
2022/04/22 13:15:07;;;;;;;0.90;0.87;;;8.80;99.90;;;;;;5124185;27;20927;-93
2022/04/22 13:17:40;;;;;;;0.50;0.50;;;8.80;99.90;;;;;;5139582;27;20880;-92
2022/04/22 13:20:09;;;;;;;0.40;0.40;;;8.70;99.90;;;;;;5144383;27;20493;-91
2022/04/22 13:22:36;;;;;;;0.93;0.47;;;8.60;99.90;;;;;;5142981;27;20584;-91
2022/04/22 13:25:03;;;;;;;0.30;0.20;;;8.60;99.90;;;;;;5139765;27;21048;-92
2022/04/22 13:27:32;;;;;;;0.30;0.10;;;8.60;99.90;;;;;;5144026;27;20512;-92
2022/04/22 13:29:59;;;;;;;0.30;0.10;;;8.50;99.90;;;;;;5139802;27;20456;-92
2022/04/22 13:32:26;;;;;;;0.40;0.27;;;8.50;99.90;;;;;;5125696;27;20445;-91
2022/04/22 13:34:53;;;;;;;0.30;0.20;;;8.40;99.90;;;;;;5128460;27;20440;-91
2022/04/22 13:37:20;;;;;;;0.40;0.30;;;8.30;99.90;;;;;;5127818;27;20488;-91
2022/04/22 13:39:47;;;;;;;0.63;0.63;;;8.30;99.90;;;;;;5112916;27;20964;-93
2022/04/22 13:42:15;;;;;;;0.33;0.30;;;8.20;99.90;;;;;;5116337;27;20458;-90
2022/04/22 13:52:56;;;;;;;0.30;0.20;;;8.20;99.90;;;;;;5127843;27;20448;-92
2022/04/22 13:55:23;;;;;;;0.50;0.30;;;8.20;99.90;;;;;;5125520;27;20464;-91
2022/04/22 13:57:51;;;;;;;0.30;0.20;;;8.30;99.90;;;;;;5129239;27;20445;-90
2022/04/22 14:00:20;;;;;;;2.77;2.67;;;8.30;99.90;;;;;;5112729;27;20878;-92
2022/04/22 14:02:47;;;;;;;0.50;0.50;;;8.20;99.90;;;;;;5111600;27;20536;-91
2022/04/22 14:05:20;;;;;;;0.30;0.20;;;8.20;99.90;;;;;;5117671;27;20887;-92
2022/04/22 14:07:48;;;;;;;0.30;0.20;;;8.10;99.90;;;;;;5116713;27;20469;-92
2022/04/22 14:10:15;;;;;;;1.03;0.50;;;8.10;99.90;;;;;;5120857;27;20481;-92
2022/04/22 14:12:42;;;;;;;0.30;0.20;;;8.10;99.90;;;;;;5119193;27;20485;-92